createdAt,value
2018-03-26T00:00:31.146Z,26.80
2018-03-26T00:02:58.588Z,26.17
2018-03-26T00:05:26.032Z,25.90
2018-03-26T00:07:54.241Z,27.35
2018-03-26T00:10:22.452Z,25.60
2018-03-26T00:12:49.893Z,24.60
2018-03-26T00:15:17.350Z,25.00
2018-03-26T00:17:44.811Z,27.30
2018-03-26T00:20:12.248Z,27.27
2018-03-26T00:22:39.704Z,28.55
2018-03-26T00:25:07.144Z,29.12
2018-03-26T00:27:34.587Z,27.77
2018-03-26T00:30:02.035Z,25.75
2018-03-26T00:32:29.493Z,28.62
2018-03-26T00:34:56.940Z,28.52
2018-03-26T00:37:25.154Z,24.45
2018-03-26T00:39:52.599Z,26.87
2018-03-26T00:42:20.039Z,26.93
2018-03-26T00:44:47.495Z,27.75
2018-03-26T00:47:14.954Z,27.87
2018-03-26T00:49:42.396Z,25.20
2018-03-26T00:52:10.620Z,25.80
2018-03-26T00:54:38.069Z,27.67
2018-03-26T00:57:05.513Z,24.37
2018-03-26T00:59:32.959Z,26.50
2018-03-26T01:02:00.416Z,29.23
2018-03-26T01:04:27.861Z,27.60
2018-03-26T01:06:55.320Z,25.88
2018-03-26T01:09:23.528Z,29.25
2018-03-26T01:11:51.748Z,28.43
2018-03-26T01:14:19.179Z,25.45
2018-03-26T01:16:46.627Z,25.30
2018-03-26T01:19:14.076Z,26.58
2018-03-26T01:21:41.523Z,30.37
2018-03-26T01:24:08.977Z,31.65
2018-03-26T01:26:36.415Z,33.28
2018-03-26T01:29:03.881Z,31.52
2018-03-26T01:31:31.322Z,27.33
2018-03-26T01:33:58.764Z,25.63
2018-03-26T01:36:26.228Z,33.15
2018-03-26T01:38:54.441Z,30.50
2018-03-26T01:41:21.888Z,28.95
2018-03-26T01:43:49.339Z,27.48
2018-03-26T01:46:16.788Z,28.08
2018-03-26T01:48:44.230Z,25.48
2018-03-26T01:51:11.671Z,27.85
2018-03-26T01:53:39.107Z,28.05
2018-03-26T01:56:07.315Z,24.37
2018-03-26T01:58:35.525Z,28.07
2018-03-26T02:01:02.955Z,26.07
2018-03-26T02:03:30.405Z,27.90
2018-03-26T02:05:57.903Z,30.10
2018-03-26T02:08:25.343Z,31.70
2018-03-26T02:10:52.781Z,24.90
2018-03-26T02:13:20.234Z,25.57
2018-03-26T02:15:47.681Z,24.63
2018-03-26T02:18:15.891Z,27.47
2018-03-26T02:20:43.331Z,29.57
2018-03-26T02:23:10.786Z,26.00
2018-03-26T02:25:38.211Z,27.23
2018-03-26T02:28:06.416Z,33.50
2018-03-26T02:30:34.615Z,27.40
2018-03-26T02:33:02.061Z,27.33
2018-03-26T02:35:29.508Z,31.87
2018-03-26T02:37:56.948Z,31.07
2018-03-26T02:40:25.149Z,31.10
2018-03-26T02:42:53.358Z,28.47
2018-03-26T02:45:20.798Z,26.60
2018-03-26T02:47:48.236Z,29.67
2018-03-26T02:50:15.676Z,31.10
2018-03-26T02:52:43.880Z,28.07
2018-03-26T02:55:12.077Z,27.17
2018-03-26T02:57:40.288Z,27.90
2018-03-26T03:00:07.724Z,30.10
2018-03-26T03:02:35.167Z,27.73
2018-03-26T03:05:02.603Z,31.17
2018-03-26T03:07:30.059Z,33.22
2018-03-26T03:09:57.496Z,31.37
2018-03-26T03:12:24.931Z,31.50
2018-03-26T03:14:52.379Z,32.97
2018-03-26T03:17:19.818Z,34.83
2018-03-26T03:19:48.020Z,31.50
2018-03-26T03:22:16.228Z,32.70
2018-03-26T03:24:43.678Z,32.10
2018-03-26T03:27:11.125Z,30.17
2018-03-26T03:29:38.554Z,31.70
2018-03-26T03:32:06.779Z,30.92
2018-03-26T03:34:34.972Z,33.72
2018-03-26T03:37:02.419Z,34.42
2018-03-26T03:39:29.859Z,32.97
2018-03-26T03:41:57.303Z,33.63
2018-03-26T03:44:24.734Z,35.65
2018-03-26T03:46:52.168Z,31.98
2018-03-26T03:49:19.623Z,33.22
2018-03-26T03:51:47.064Z,32.10
2018-03-26T03:54:14.511Z,33.33
2018-03-26T03:56:41.958Z,33.28
2018-03-26T03:59:09.415Z,35.05
2018-03-26T04:01:36.850Z,42.77
2018-03-26T04:04:05.067Z,33.20
2018-03-26T04:06:32.507Z,34.05
2018-03-26T04:08:59.951Z,36.63
2018-03-26T04:11:27.387Z,39.97
2018-03-26T04:13:55.618Z,40.58
2018-03-26T04:16:23.052Z,38.58
2018-03-26T04:18:51.270Z,37.80
2018-03-26T04:21:19.459Z,38.25
2018-03-26T04:23:47.678Z,36.53
2018-03-26T04:26:15.122Z,30.35
2018-03-26T04:28:42.556Z,35.95
2018-03-26T04:31:09.992Z,35.60
2018-03-26T04:33:38.198Z,39.03
2018-03-26T04:36:06.411Z,39.55
2018-03-26T04:38:33.859Z,44.08
2018-03-26T04:41:01.293Z,36.70
2018-03-26T04:43:28.724Z,41.60
2018-03-26T04:45:56.167Z,36.20
2018-03-26T04:48:23.606Z,35.63
2018-03-26T04:50:51.071Z,37.77
2018-03-26T04:53:19.271Z,42.90
2018-03-26T04:55:47.465Z,48.93
2018-03-26T04:58:15.679Z,41.30
2018-03-26T05:00:43.106Z,36.33
2018-03-26T05:03:10.544Z,37.00
2018-03-26T05:05:37.976Z,39.27
2018-03-26T05:08:05.433Z,46.93
2018-03-26T05:10:32.863Z,45.80
2018-03-26T05:13:01.083Z,50.67
2018-03-26T05:15:28.523Z,45.20
2018-03-26T05:17:55.974Z,55.17
2018-03-26T05:20:23.423Z,47.22
2018-03-26T05:22:50.871Z,49.63
2018-03-26T05:25:18.318Z,47.27
2018-03-26T05:27:45.776Z,46.65
2018-03-26T05:30:13.215Z,43.55
2018-03-26T05:32:40.647Z,44.43
2018-03-26T05:35:08.095Z,44.55
2018-03-26T05:37:36.308Z,43.58
2018-03-26T05:40:03.744Z,42.50
2018-03-26T05:42:31.194Z,140.62
2018-03-26T05:44:58.631Z,56.00
2018-03-26T05:47:26.846Z,54.03
2018-03-26T05:49:54.286Z,44.87
2018-03-26T05:52:21.728Z,41.80
2018-03-26T05:54:49.180Z,45.35
2018-03-26T05:57:16.620Z,41.92
2018-03-26T05:59:44.062Z,46.15
2018-03-26T06:02:11.529Z,47.45
2018-03-26T06:04:39.725Z,44.83
2018-03-26T06:07:07.171Z,40.75
2018-03-26T06:09:34.611Z,41.63
2018-03-26T06:12:02.055Z,42.37
2018-03-26T06:14:30.263Z,46.72
2018-03-26T06:17:09.695Z,43.58
2018-03-26T06:19:37.122Z,43.35
2018-03-26T06:22:04.571Z,42.40
2018-03-26T06:24:32.915Z,45.58
2018-03-26T06:27:00.358Z,42.65
2018-03-26T06:29:28.554Z,43.33
2018-03-26T06:31:56.760Z,45.45
2018-03-26T06:34:24.972Z,44.15
2018-03-26T06:36:54.400Z,43.67
2018-03-26T06:39:23.603Z,45.80
2018-03-26T06:41:51.815Z,45.92
2018-03-26T06:44:19.315Z,42.13
2018-03-26T06:46:46.707Z,40.97
2018-03-26T06:49:14.143Z,43.05
2018-03-26T06:51:42.344Z,45.30
2018-03-26T06:54:10.559Z,44.05
2018-03-26T06:56:37.995Z,45.35
2018-03-26T06:59:05.435Z,48.28
2018-03-26T07:01:32.876Z,42.40
2018-03-26T07:04:00.307Z,39.83
2018-03-26T07:06:27.747Z,43.73
2018-03-26T07:08:55.951Z,49.67
2018-03-26T07:11:23.396Z,39.43
2018-03-26T07:13:50.838Z,39.27
2018-03-26T07:16:18.289Z,43.20
2018-03-26T07:18:46.512Z,46.60
2018-03-26T07:21:13.942Z,43.10
2018-03-26T07:23:41.388Z,46.93
2018-03-26T07:26:08.835Z,46.95
2018-03-26T07:28:36.291Z,51.95
2018-03-26T07:31:03.727Z,43.70
2018-03-26T07:33:31.193Z,47.20
2018-03-26T07:35:58.618Z,48.80
2018-03-26T07:38:26.060Z,43.70
2018-03-26T07:40:53.498Z,46.47
2018-03-26T07:43:21.704Z,42.60
2018-03-26T07:45:49.899Z,47.47
2018-03-26T07:48:18.103Z,41.97
2018-03-26T07:50:46.316Z,43.13
2018-03-26T07:53:13.759Z,44.43
2018-03-26T07:55:41.211Z,48.85
2018-03-26T07:58:08.653Z,50.97
2018-03-26T08:00:36.865Z,43.70
2018-03-26T08:03:04.295Z,41.60
2018-03-26T08:05:31.747Z,45.80
2018-03-26T08:07:59.187Z,45.88
2018-03-26T08:10:27.419Z,41.65
2018-03-26T08:12:54.851Z,41.60
2018-03-26T08:15:23.067Z,42.67
2018-03-26T08:17:51.291Z,47.75
2018-03-26T08:20:18.759Z,50.95
2018-03-26T08:22:46.197Z,49.97
2018-03-26T08:25:13.656Z,50.50
2018-03-26T08:27:41.099Z,44.10
2018-03-26T08:30:08.599Z,48.78
2018-03-26T08:32:36.065Z,52.65
2018-03-26T08:35:04.247Z,50.80
2018-03-26T08:37:32.447Z,44.53
2018-03-26T08:40:00.658Z,44.22
2018-03-26T08:42:28.151Z,44.42
2018-03-26T08:44:55.539Z,43.53
2018-03-26T08:47:22.971Z,42.72
2018-03-26T08:49:51.249Z,44.92
2018-03-26T08:52:19.385Z,43.55
2018-03-26T08:54:46.854Z,43.35
2018-03-26T08:57:15.063Z,40.40
2018-03-26T08:59:43.297Z,45.40
2018-03-26T09:02:10.742Z,48.80
2018-03-26T09:04:38.942Z,45.77
2018-03-26T09:07:07.139Z,49.57
2018-03-26T09:09:35.344Z,39.20
2018-03-26T09:12:03.550Z,42.40
2018-03-26T09:14:31.000Z,40.20
2018-03-26T09:16:58.458Z,44.80
2018-03-26T09:19:25.894Z,42.38
2018-03-26T09:21:53.338Z,41.30
2018-03-26T09:24:20.783Z,41.63
2018-03-26T09:26:48.235Z,44.78
2018-03-26T09:29:15.693Z,45.70
2018-03-26T09:31:43.906Z,42.13
2018-03-26T09:34:12.118Z,42.00
2018-03-26T09:36:40.314Z,40.87
2018-03-26T09:39:07.772Z,39.43
2018-03-26T09:41:35.976Z,41.72
2018-03-26T09:44:04.197Z,38.78
2018-03-26T09:46:31.664Z,41.28
2018-03-26T09:48:59.882Z,38.63
2018-03-26T09:51:27.323Z,37.65
2018-03-26T09:53:54.763Z,40.47
2018-03-26T09:56:22.207Z,37.77
2018-03-26T09:58:49.678Z,45.60
2018-03-26T10:01:17.896Z,41.85
2018-03-26T10:03:45.328Z,42.62
2018-03-26T10:06:12.771Z,46.83
2018-03-26T10:08:40.213Z,42.70
2018-03-26T10:11:08.428Z,45.65
2018-03-26T10:13:36.631Z,41.33
2018-03-26T10:16:04.099Z,49.80
2018-03-26T10:18:32.312Z,37.97
2018-03-26T10:20:59.755Z,42.05
2018-03-26T10:23:27.883Z,42.38
2018-03-26T10:25:55.323Z,40.12
2018-03-26T10:28:23.579Z,39.85
2018-03-26T10:30:51.019Z,41.23
2018-03-26T10:33:18.475Z,43.13
2018-03-26T10:35:45.929Z,40.53
2018-03-26T10:38:13.390Z,40.03
2018-03-26T10:40:41.583Z,42.70
2018-03-26T10:43:09.780Z,39.73
2018-03-26T10:45:37.996Z,36.97
2018-03-26T10:48:05.431Z,40.17
2018-03-26T10:50:32.891Z,38.45
2018-03-26T10:53:00.327Z,45.97
2018-03-26T10:55:27.781Z,42.72
2018-03-26T10:57:55.211Z,42.27
2018-03-26T11:00:22.680Z,41.75
2018-03-26T11:02:50.108Z,43.58
2018-03-26T11:05:17.552Z,40.97
2018-03-26T11:07:44.983Z,40.03
2018-03-26T11:10:12.427Z,40.53
2018-03-26T11:12:39.874Z,42.80
2018-03-26T11:15:07.318Z,42.28
2018-03-26T11:17:34.764Z,43.85
2018-03-26T11:20:02.223Z,42.40
2018-03-26T11:22:29.679Z,39.95
2018-03-26T11:24:57.897Z,47.33
2018-03-26T11:27:25.339Z,45.65
2018-03-26T11:29:52.782Z,44.92
2018-03-26T11:32:20.217Z,40.63
2018-03-26T11:34:48.422Z,41.58
2018-03-26T11:37:16.630Z,42.50
2018-03-26T11:39:44.076Z,46.90
2018-03-26T11:42:11.523Z,44.80
2018-03-26T11:44:38.964Z,40.15
2018-03-26T11:47:07.174Z,45.57
2018-03-26T11:49:34.656Z,43.87
2018-03-26T11:52:02.059Z,43.47
2018-03-26T11:54:29.512Z,44.50
2018-03-26T11:56:56.952Z,43.22
2018-03-26T11:59:24.394Z,45.73
2018-03-26T12:01:51.851Z,48.75
2018-03-26T12:04:19.306Z,47.10
2018-03-26T12:06:46.754Z,42.25
2018-03-26T12:09:14.195Z,44.10
2018-03-26T12:11:42.403Z,42.73
2018-03-26T12:14:09.839Z,48.10
2018-03-26T12:16:37.295Z,44.03
2018-03-26T12:19:04.754Z,46.42
2018-03-26T12:21:32.213Z,42.75
2018-03-26T12:24:11.590Z,41.90
2018-03-26T12:26:39.060Z,41.58
2018-03-26T12:29:18.230Z,42.90
2018-03-26T12:31:45.770Z,47.60
2018-03-26T12:37:13.854Z,40.63
2018-03-26T12:39:42.069Z,45.83
2018-03-26T12:42:09.538Z,38.97
2018-03-26T12:44:48.976Z,46.40
2018-03-26T12:47:16.441Z,41.57
2018-03-26T12:49:43.893Z,43.27
2018-03-26T12:52:23.238Z,48.53
2018-03-26T12:54:50.689Z,40.30
2018-03-26T12:57:30.074Z,41.83
2018-03-26T12:59:58.302Z,39.73
2018-03-26T13:02:29.101Z,38.43
2018-03-26T13:04:57.314Z,40.63
2018-03-26T13:07:24.773Z,43.87
2018-03-26T13:09:52.239Z,39.93
2018-03-26T13:12:19.701Z,44.10
2018-03-26T13:14:47.149Z,39.10
2018-03-26T13:17:14.619Z,40.67
2018-03-26T13:19:42.077Z,42.58
2018-03-26T13:22:09.538Z,45.13
2018-03-26T13:24:36.997Z,42.83
2018-03-26T13:27:04.458Z,44.73
2018-03-26T13:29:31.910Z,45.00
2018-03-26T13:31:59.366Z,45.97
2018-03-26T13:34:26.820Z,44.63
2018-03-26T13:36:54.277Z,42.60
2018-03-26T13:39:21.746Z,42.87
2018-03-26T13:41:49.232Z,38.70
2018-03-26T13:44:16.665Z,41.87
2018-03-26T13:46:44.119Z,47.53
2018-03-26T13:49:11.579Z,51.40
2018-03-26T13:51:39.033Z,56.13
2018-03-26T13:54:06.499Z,51.57
2018-03-26T13:56:33.949Z,45.40
2018-03-26T13:59:01.422Z,46.20
2018-03-26T14:01:28.882Z,47.47
2018-03-26T14:03:56.347Z,47.40
2018-03-26T14:06:23.856Z,50.75
2018-03-26T14:09:04.042Z,48.92
2018-03-26T14:11:43.415Z,47.78
2018-03-26T14:14:23.545Z,51.42
2018-03-26T14:17:02.949Z,49.70
2018-03-26T14:19:30.427Z,49.20
2018-03-26T14:21:57.887Z,46.72
2018-03-26T14:24:25.399Z,45.40
2018-03-26T14:26:52.814Z,48.97
2018-03-26T14:29:20.278Z,51.97
2018-03-26T14:31:47.729Z,54.00
2018-03-26T14:34:15.191Z,50.88
2018-03-26T14:36:42.656Z,50.58
2018-03-26T14:39:10.102Z,50.93
2018-03-26T14:41:37.669Z,52.38
2018-03-26T14:44:05.125Z,51.47
2018-03-26T14:46:32.577Z,54.28
2018-03-26T14:49:00.040Z,50.20
2018-03-26T14:51:27.509Z,57.97
2018-03-26T14:53:54.961Z,50.30
2018-03-26T14:56:22.425Z,53.67
2018-03-26T14:58:49.865Z,53.47
2018-03-26T15:01:17.354Z,51.28
2018-03-26T15:03:45.561Z,53.35
2018-03-26T15:06:13.023Z,53.20
2018-03-26T15:08:40.489Z,51.20
2018-03-26T15:11:08.004Z,51.67
2018-03-26T15:13:35.420Z,50.17
2018-03-26T15:16:02.886Z,53.87
2018-03-26T15:18:30.351Z,53.03
2018-03-26T15:20:57.834Z,49.47
2018-03-26T15:23:26.059Z,54.55
2018-03-26T15:25:53.523Z,55.83
2018-03-26T15:28:20.978Z,57.93
2018-03-26T15:30:48.462Z,58.20
2018-03-26T15:33:15.926Z,54.10
2018-03-26T15:35:43.377Z,58.10
2018-03-26T15:38:10.846Z,53.28
2018-03-26T15:40:38.298Z,59.35
2018-03-26T15:43:05.775Z,54.05
2018-03-26T15:45:33.237Z,57.30
2018-03-26T15:48:01.460Z,55.45
2018-03-26T15:50:28.926Z,60.30
2018-03-26T15:52:56.381Z,54.40
2018-03-26T15:55:23.868Z,60.50
2018-03-26T15:57:51.302Z,55.33
2018-03-26T16:00:18.753Z,57.03
2018-03-26T16:02:51.825Z,54.85
2018-03-26T16:05:19.280Z,55.80
2018-03-26T18:03:08.905Z,72.87
2018-03-26T18:05:36.354Z,87.10
2018-03-26T18:08:03.819Z,82.63
2018-03-26T18:10:31.269Z,78.93
2018-03-26T18:12:58.726Z,85.47
2018-03-26T18:15:26.183Z,82.93
2018-03-26T18:17:53.641Z,86.03
2018-03-26T18:20:21.091Z,83.53
2018-03-26T18:22:48.595Z,84.20
2018-03-26T18:25:16.002Z,98.23
2018-03-26T18:27:43.466Z,93.00
2018-03-26T18:30:10.921Z,100.27
2018-03-26T18:32:38.381Z,92.33
2018-03-26T18:35:05.853Z,87.13
2018-03-26T18:37:33.361Z,80.90
2018-03-26T18:40:00.777Z,76.33
2018-03-26T18:42:28.231Z,70.03
2018-03-26T18:44:55.678Z,81.13
2018-03-26T18:47:23.144Z,90.53
2018-03-26T18:49:50.598Z,95.15
2018-03-26T18:52:18.057Z,106.60
2018-03-26T18:54:45.537Z,97.47
2018-03-26T18:57:13.773Z,97.62
2018-03-26T18:59:41.238Z,108.85
2018-03-26T19:02:08.697Z,103.77
2018-03-26T19:04:36.162Z,94.43
2018-03-26T19:07:03.619Z,99.78
2018-03-26T19:09:31.066Z,91.75
2018-03-26T19:11:58.515Z,97.93
2018-03-26T19:14:25.980Z,96.43
2018-03-26T19:16:53.447Z,94.47
2018-03-26T19:19:20.905Z,100.57
2018-03-26T19:21:48.374Z,116.62
2018-03-26T19:24:15.829Z,108.45
2018-03-26T19:26:43.289Z,107.23
2018-03-26T19:31:37.762Z,86.67
2018-03-26T19:34:05.238Z,114.53
2018-03-26T19:36:32.698Z,108.90
2018-03-26T19:39:00.166Z,99.73
2018-03-26T19:41:27.626Z,104.40
2018-03-26T19:43:55.103Z,100.32
2018-03-26T19:46:22.564Z,83.63
2018-03-26T19:48:50.017Z,84.47
2018-03-26T19:51:17.467Z,79.87
2018-03-26T19:53:44.932Z,82.90
2018-03-26T19:56:12.383Z,82.00
2018-03-26T19:58:39.844Z,90.00
2018-03-26T20:01:07.306Z,92.27
2018-03-26T20:03:34.761Z,92.57
2018-03-26T20:06:02.248Z,89.03
2018-03-26T20:08:30.475Z,85.10
2018-03-26T20:10:57.933Z,90.53
2018-03-26T20:13:25.406Z,80.20
2018-03-26T20:15:52.858Z,78.63
2018-03-26T20:18:20.330Z,81.60
2018-03-26T20:20:47.782Z,84.33
2018-03-26T20:23:15.295Z,106.27
2018-03-26T20:25:42.694Z,94.97
2018-03-26T20:28:10.151Z,82.40
2018-03-26T20:30:37.622Z,100.77
2018-03-26T20:33:05.098Z,81.47
2018-03-26T20:35:33.323Z,82.40
2018-03-26T20:38:00.782Z,84.40
2018-03-26T20:40:28.237Z,90.77
2018-03-26T20:42:55.689Z,90.03
2018-03-26T20:45:23.148Z,84.50
2018-03-26T20:47:50.597Z,101.53
2018-03-26T20:50:18.066Z,95.33
2018-03-26T20:52:45.521Z,84.33
2018-03-26T20:55:12.988Z,88.30
2018-03-26T20:57:40.438Z,90.07
2018-03-26T21:00:07.902Z,92.10
